createdAt,value
2023-05-12T00:02:49.809Z,100346.00
2023-05-12T00:05:52.203Z,100340.97
2023-05-12T00:08:54.119Z,100340.72
2023-05-12T00:11:56.342Z,100340.91
2023-05-12T00:14:58.392Z,100338.13
2023-05-12T00:18:00.735Z,100338.34
2023-05-12T00:21:03.106Z,100336.19
2023-05-12T00:24:05.569Z,100333.53
2023-05-12T00:27:07.657Z,100326.00
2023-05-12T00:30:12.855Z,100341.00
2023-05-12T00:33:16.618Z,100327.28
2023-05-12T00:36:18.942Z,100329.25
2023-05-12T00:39:21.195Z,100317.75
2023-05-12T00:42:23.424Z,100317.75
2023-05-12T00:45:25.447Z,100319.38
2023-05-12T00:48:28.015Z,100322.31
2023-05-12T00:51:30.105Z,100323.28
2023-05-12T00:54:32.748Z,100319.00
2023-05-12T00:57:34.828Z,100320.59
2023-05-12T01:00:37.199Z,100317.28
2023-05-12T01:03:40.241Z,100312.16
2023-05-12T01:06:53.139Z,100315.41
2023-05-12T01:09:56.467Z,100316.22
2023-05-12T01:13:00.156Z,100310.19
2023-05-12T01:16:03.082Z,100314.56
2023-05-12T01:19:07.583Z,100314.41
2023-05-12T01:22:11.029Z,100314.56
2023-05-12T01:25:15.141Z,100319.31
2023-05-12T01:28:18.381Z,100317.28
2023-05-12T01:31:21.249Z,100315.84
2023-05-12T01:34:23.482Z,100314.44
2023-05-12T01:37:26.952Z,100319.69
2023-05-12T01:40:29.389Z,100327.59
2023-05-12T01:43:31.813Z,100326.97
2023-05-12T01:46:33.858Z,100322.94
2023-05-12T01:49:36.648Z,100330.97
2023-05-12T01:52:39.112Z,100328.84
2023-05-12T01:55:41.859Z,100333.47
2023-05-12T01:58:45.082Z,100342.69
2023-05-12T02:01:47.511Z,100337.81
2023-05-12T02:04:50.924Z,100341.06
2023-05-12T02:07:53.080Z,100350.41
2023-05-12T02:11:08.150Z,100342.75
2023-05-12T02:14:10.219Z,100346.44
2023-05-12T02:17:12.866Z,100345.47
2023-05-12T02:20:15.207Z,100341.16
2023-05-12T02:23:18.264Z,100348.28
2023-05-12T02:26:21.193Z,100346.69
2023-05-12T02:29:23.816Z,100348.56
2023-05-12T02:32:28.215Z,100343.69
2023-05-12T02:35:30.756Z,100353.25
2023-05-12T02:38:32.712Z,100354.00
2023-05-12T02:41:35.086Z,100349.06
2023-05-12T02:44:37.163Z,100353.59
2023-05-12T02:47:39.686Z,100345.09
2023-05-12T02:50:41.868Z,100350.28
2023-05-12T02:53:44.272Z,100352.09
2023-05-12T02:56:46.201Z,100351.34
2023-05-12T02:59:48.554Z,100352.94
2023-05-12T03:02:50.678Z,100350.69
2023-05-12T03:05:53.497Z,100350.91
2023-05-12T03:08:55.834Z,100351.50
2023-05-12T03:11:58.176Z,100349.84
2023-05-12T03:15:00.118Z,100352.63
2023-05-12T03:18:05.437Z,100351.91
2023-05-12T03:21:07.636Z,100353.94
2023-05-12T03:24:13.026Z,100350.66
2023-05-12T03:27:15.119Z,100357.56
2023-05-12T03:30:17.550Z,100355.00
2023-05-12T03:33:19.750Z,100358.34
2023-05-12T03:36:23.697Z,100348.03
2023-05-12T03:39:25.984Z,100360.25
2023-05-12T03:42:28.530Z,100356.03
2023-05-12T03:45:30.948Z,100362.31
2023-05-12T03:48:33.389Z,100362.94
2023-05-12T03:51:35.498Z,100362.53
2023-05-12T03:54:38.155Z,100366.47
2023-05-12T03:57:40.200Z,100366.34
2023-05-12T04:00:42.590Z,100375.28
2023-05-12T04:03:45.087Z,100372.87
2023-05-12T04:06:47.085Z,100373.94
2023-05-12T04:09:49.389Z,100368.41
2023-05-12T04:12:52.381Z,100378.88
2023-05-12T04:15:55.653Z,100377.66
2023-05-12T04:18:58.076Z,100380.28
2023-05-12T04:22:00.454Z,100383.59
2023-05-12T04:25:02.585Z,100391.69
2023-05-12T04:28:04.968Z,100378.41
2023-05-12T04:31:07.156Z,100389.16
2023-05-12T04:34:09.722Z,100401.16
2023-05-12T04:37:11.799Z,100392.00
2023-05-12T04:40:14.886Z,100386.06
2023-05-12T04:46:22.931Z,100390.59
2023-05-12T04:49:25.689Z,100386.16
2023-05-12T04:52:29.453Z,100384.84
2023-05-12T04:55:32.054Z,100389.66
2023-05-12T04:58:34.733Z,100388.63
2023-05-12T05:01:37.429Z,100397.69
2023-05-12T05:04:40.564Z,100387.78
2023-05-12T05:07:43.732Z,100399.09
2023-05-12T05:10:46.664Z,100398.75
2023-05-12T05:13:51.783Z,100397.13
2023-05-12T05:16:54.296Z,100398.03
2023-05-12T05:19:59.278Z,100391.12
2023-05-12T05:23:03.405Z,100391.44
2023-05-12T05:26:05.824Z,100399.09
2023-05-12T05:29:08.628Z,100394.13
2023-05-12T05:32:11.053Z,100391.41
2023-05-12T05:35:13.858Z,100402.19
2023-05-12T05:38:16.539Z,100401.94
2023-05-12T05:41:19.171Z,100397.56
2023-05-12T05:44:21.510Z,100404.75
2023-05-12T05:47:24.681Z,100401.03
2023-05-12T05:50:26.969Z,100414.44
2023-05-12T05:53:29.584Z,100410.44
2023-05-12T05:56:33.244Z,100411.09
2023-05-12T05:59:36.047Z,100408.72
2023-05-12T06:02:39.655Z,100413.09
2023-05-12T06:05:43.685Z,100413.13
2023-05-12T06:08:46.067Z,100416.28
2023-05-12T06:11:48.478Z,100424.31
2023-05-12T06:14:51.181Z,100428.75
2023-05-12T06:17:53.706Z,100419.41
2023-05-12T06:20:55.682Z,100428.00
2023-05-12T06:23:58.828Z,100430.41
2023-05-12T06:27:01.460Z,100424.47
2023-05-12T06:30:04.502Z,100426.75
2023-05-12T06:33:06.606Z,100423.84
2023-05-12T06:36:10.706Z,100420.41
2023-05-12T06:39:13.002Z,100423.87
2023-05-12T06:42:15.806Z,100428.31
2023-05-12T06:45:18.259Z,100421.47
2023-05-12T06:48:20.866Z,100425.75
2023-05-12T06:51:23.082Z,100424.16
2023-05-12T06:54:26.411Z,100425.97
2023-05-12T06:57:28.632Z,100428.06
2023-05-12T07:00:31.314Z,100419.34
2023-05-12T07:03:33.700Z,100423.63
2023-05-12T07:06:36.370Z,100422.19
2023-05-12T07:09:41.075Z,100421.94
2023-05-12T07:12:43.676Z,100416.19
2023-05-12T07:15:46.058Z,100425.22
2023-05-12T07:18:48.794Z,100428.00
2023-05-12T07:21:51.213Z,100423.06
2023-05-12T07:24:53.676Z,100416.94
2023-05-12T07:27:55.747Z,100425.00
2023-05-12T07:30:59.477Z,100416.37
2023-05-12T07:34:01.917Z,100417.59
2023-05-12T07:37:06.498Z,100418.19
2023-05-12T07:40:08.880Z,100422.28
2023-05-12T07:43:12.042Z,100417.25
2023-05-12T07:46:14.198Z,100423.22
2023-05-12T07:49:18.477Z,100421.78
2023-05-12T07:52:20.816Z,100417.59
2023-05-12T07:55:25.973Z,100428.00
2023-05-12T07:58:28.191Z,100430.41
2023-05-12T08:01:30.693Z,100428.59
2023-05-12T08:04:33.051Z,100426.22
2023-05-12T08:07:48.499Z,100425.81
2023-05-12T08:10:50.970Z,100432.00
2023-05-12T08:13:53.349Z,100433.16
2023-05-12T08:16:55.793Z,100431.09
2023-05-12T08:19:59.409Z,100435.16
2023-05-12T08:23:02.112Z,100439.38
2023-05-12T08:26:04.626Z,100448.62
2023-05-12T08:29:08.724Z,100435.34
2023-05-12T08:32:11.241Z,100434.97
2023-05-12T08:35:13.832Z,100441.34
2023-05-12T08:38:19.055Z,100448.16
2023-05-12T08:41:32.050Z,100443.00
2023-05-12T08:44:34.150Z,100441.31
2023-05-12T08:47:37.672Z,100457.28
2023-05-12T08:50:41.202Z,100455.25
2023-05-12T08:53:43.438Z,100451.66
2023-05-12T08:59:55.745Z,100455.09
2023-05-12T09:02:59.347Z,100452.47
2023-05-12T09:06:01.936Z,100452.72
2023-05-12T09:09:04.108Z,100459.16
2023-05-12T09:12:10.036Z,100466.25
2023-05-12T09:15:14.766Z,100466.25
2023-05-12T09:18:16.975Z,100468.78
2023-05-12T09:21:19.602Z,100469.59
2023-05-12T09:24:33.338Z,100484.44
2023-05-12T09:27:35.297Z,100473.66
2023-05-12T09:30:38.537Z,100484.78
2023-05-12T09:33:40.945Z,100482.94
2023-05-12T09:36:43.348Z,100488.75
2023-05-12T09:39:45.718Z,100499.66
2023-05-12T09:42:48.462Z,100509.50
2023-05-12T09:45:50.810Z,100502.69
2023-05-12T09:48:55.564Z,100505.34
2023-05-12T09:51:58.707Z,100500.66
2023-05-12T09:55:19.565Z,100505.97
2023-05-12T09:58:22.571Z,100499.81
2023-05-12T10:01:25.747Z,100512.66
2023-05-12T10:04:44.265Z,100501.59
2023-05-12T10:07:48.689Z,100495.31
2023-05-12T10:10:52.215Z,100501.56
2023-05-12T10:13:54.355Z,100506.31
2023-05-12T10:16:57.912Z,100501.34
2023-05-12T10:20:00.919Z,100497.16
2023-05-12T10:23:04.062Z,100496.47
2023-05-12T10:26:06.352Z,100499.19
2023-05-12T10:29:08.920Z,100493.00
2023-05-12T10:32:11.414Z,100493.63
2023-05-12T10:35:14.600Z,100491.88
2023-05-12T10:38:16.899Z,100491.03
2023-05-12T10:41:35.669Z,100502.41
2023-05-12T10:44:49.277Z,100502.97
2023-05-12T10:47:51.936Z,100503.09
2023-05-12T10:50:54.105Z,100511.56
2023-05-12T10:54:02.120Z,100510.25
2023-05-12T10:57:16.038Z,100508.06
2023-05-12T11:00:23.242Z,100503.06
2023-05-12T11:03:26.163Z,100506.13
2023-05-12T11:06:33.009Z,100512.22
2023-05-12T11:09:46.927Z,100504.75
2023-05-12T11:12:56.486Z,100502.66
2023-05-12T11:15:58.643Z,100502.72
2023-05-12T11:19:04.925Z,100512.44
2023-05-12T11:22:07.739Z,100498.69
2023-05-12T11:25:10.968Z,100497.69
2023-05-12T11:28:13.103Z,100510.03
2023-05-12T11:31:20.221Z,100511.34
2023-05-12T11:34:23.232Z,100503.62
2023-05-12T11:37:25.502Z,100503.62
2023-05-12T11:40:27.616Z,100502.19
2023-05-12T11:43:29.882Z,100501.09
2023-05-12T11:46:32.002Z,100501.31
2023-05-12T11:49:44.976Z,100491.41
2023-05-12T11:52:47.011Z,100499.62
2023-05-12T11:55:49.508Z,100501.91
2023-05-12T11:58:58.184Z,100495.94
2023-05-12T12:04:30.869Z,100499.69
2023-05-12T12:07:38.207Z,100499.69
2023-05-12T12:10:45.177Z,100507.19
2023-05-12T12:13:49.584Z,100509.97
2023-05-12T12:16:51.601Z,100507.56
2023-05-12T12:19:53.880Z,100507.03
2023-05-12T12:22:55.889Z,100509.19
2023-05-12T12:25:58.153Z,100516.34
2023-05-12T12:29:00.172Z,100517.44
2023-05-12T12:32:02.431Z,100521.13
2023-05-12T12:35:06.488Z,100522.94
2023-05-12T12:38:08.766Z,100517.22
2023-05-12T12:41:10.895Z,100523.69
2023-05-12T12:44:13.454Z,100524.97
2023-05-12T12:47:15.648Z,100525.97
2023-05-12T12:50:18.098Z,100524.47
2023-05-12T12:53:20.794Z,100532.97
2023-05-12T12:56:25.573Z,100529.59
2023-05-12T12:59:27.966Z,100523.59
2023-05-12T13:02:30.366Z,100521.97
2023-05-12T13:05:32.648Z,100527.16
2023-05-12T13:08:35.030Z,100533.09
2023-05-12T13:11:37.032Z,100529.50
2023-05-12T13:14:39.706Z,100525.47
2023-05-12T13:17:41.812Z,100522.97
2023-05-12T13:20:44.449Z,100520.66
2023-05-12T13:23:46.727Z,100526.22
2023-05-12T13:26:49.006Z,100525.25
2023-05-12T13:29:51.889Z,100522.44
2023-05-12T13:32:54.272Z,100532.56
2023-05-12T13:35:57.089Z,100541.91
2023-05-12T13:38:59.332Z,100537.19
2023-05-12T13:42:01.455Z,100533.78
2023-05-12T13:45:04.400Z,100532.50
2023-05-12T13:48:06.519Z,100530.22
2023-05-12T13:51:08.904Z,100531.47
2023-05-12T13:54:10.941Z,100532.22
2023-05-12T13:57:14.238Z,100532.94
2023-05-12T14:00:19.613Z,100534.84
2023-05-12T14:03:22.105Z,100536.13
2023-05-12T14:06:24.053Z,100528.41
2023-05-12T14:09:26.686Z,100529.47
2023-05-12T14:12:28.704Z,100547.75
2023-05-12T14:15:47.206Z,100554.06
2023-05-12T14:18:50.464Z,100551.44
2023-05-12T14:21:52.826Z,100545.81
2023-05-12T14:24:55.811Z,100549.37
2023-05-12T14:27:58.533Z,100546.50
2023-05-12T14:31:01.875Z,100545.59
2023-05-12T14:34:04.549Z,100558.25
2023-05-12T14:37:06.548Z,100555.47
2023-05-12T14:40:09.070Z,100566.47
2023-05-12T14:43:11.085Z,100575.13
2023-05-12T14:46:13.783Z,100571.31
2023-05-12T14:49:18.544Z,100571.94
2023-05-12T14:52:20.767Z,100573.84
2023-05-12T14:55:22.969Z,100585.50
2023-05-12T14:58:25.394Z,100584.66
2023-05-12T15:01:28.179Z,100584.38
2023-05-12T15:04:30.705Z,100586.78
2023-05-12T15:07:32.870Z,100588.16
2023-05-12T15:10:35.126Z,100589.00
2023-05-12T15:13:37.105Z,100589.59
2023-05-12T15:16:39.498Z,100591.78
2023-05-12T15:19:42.174Z,100590.13
2023-05-12T15:22:44.438Z,100594.38
2023-05-12T15:25:46.454Z,100589.53
2023-05-12T15:28:48.712Z,100593.53
2023-05-12T15:31:50.805Z,100597.41
2023-05-12T15:34:53.062Z,100595.41
2023-05-12T15:37:55.474Z,100593.41
2023-05-12T15:40:58.405Z,100594.88
2023-05-12T15:44:00.308Z,100594.56
2023-05-12T15:47:02.669Z,100592.78
2023-05-12T15:50:04.872Z,100602.25
2023-05-12T15:53:07.170Z,100587.53
2023-05-12T15:56:09.133Z,100595.09
2023-05-12T15:59:14.515Z,100593.84
2023-05-12T16:02:16.610Z,100588.69
2023-05-12T16:05:19.205Z,100585.63
2023-05-12T16:08:22.064Z,100593.19
2023-05-12T16:11:24.262Z,100597.94
2023-05-12T16:14:26.217Z,100596.47
2023-05-12T16:17:28.616Z,100592.16
2023-05-12T16:20:30.830Z,100591.94
2023-05-12T16:23:33.369Z,100603.41
2023-05-12T16:26:35.358Z,100598.78
2023-05-12T16:29:37.625Z,100595.63
2023-05-12T16:32:42.997Z,100601.31
2023-05-12T16:35:45.351Z,100598.03
2023-05-12T16:38:47.272Z,100602.06
2023-05-12T16:41:49.535Z,100603.00
2023-05-12T16:44:57.826Z,100608.06
2023-05-12T16:48:00.201Z,100609.75
2023-05-12T16:51:06.874Z,100606.16
2023-05-12T16:54:09.190Z,100609.63
2023-05-12T16:57:11.186Z,100609.53
2023-05-12T17:00:14.173Z,100614.25
2023-05-12T17:03:16.471Z,100610.37
2023-05-12T17:06:18.771Z,100611.06
2023-05-12T17:09:21.247Z,100611.00
2023-05-12T17:12:23.483Z,100617.41
2023-05-12T17:15:26.535Z,100618.53
2023-05-12T17:18:28.900Z,100616.63
2023-05-12T17:21:31.354Z,100623.75
2023-05-12T17:24:34.334Z,100628.81
2023-05-12T17:27:36.444Z,100626.50
2023-05-12T17:30:38.759Z,100624.41
2023-05-12T17:33:40.667Z,100626.84
2023-05-12T17:36:42.975Z,100629.12
2023-05-12T17:39:44.896Z,100629.78
2023-05-12T17:42:47.227Z,100634.41
2023-05-12T17:45:49.264Z,100638.91
2023-05-12T17:48:51.817Z,100644.56
2023-05-12T17:51:54.802Z,100650.66
2023-05-12T17:54:57.323Z,100653.25
2023-05-12T17:57:59.331Z,100650.50
2023-05-12T18:01:01.826Z,100657.16
2023-05-12T18:04:04.200Z,100653.63
2023-05-12T18:07:06.884Z,100651.13
2023-05-12T18:10:09.940Z,100650.87
2023-05-12T18:13:12.276Z,100649.41
2023-05-12T18:16:25.336Z,100657.28
2023-05-12T18:19:30.800Z,100656.31
2023-05-12T18:22:33.027Z,100655.09
2023-05-12T18:25:35.016Z,100655.53
2023-05-12T18:28:37.367Z,100650.16
2023-05-12T18:31:41.919Z,100656.16
2023-05-12T18:34:45.514Z,100650.69
2023-05-12T18:37:47.468Z,100664.56
2023-05-12T18:40:49.696Z,100662.22
2023-05-12T18:43:52.272Z,100664.72
2023-05-12T18:46:54.525Z,100672.94
2023-05-12T18:49:56.745Z,100669.06
2023-05-12T18:52:58.992Z,100672.53
2023-05-12T18:56:01.018Z,100673.81
2023-05-12T18:59:03.254Z,100674.28
2023-05-12T19:02:05.488Z,100676.16
2023-05-12T19:05:08.516Z,100678.31
2023-05-12T19:08:11.170Z,100687.22
2023-05-12T19:11:13.443Z,100695.09
2023-05-12T19:14:16.679Z,100689.56
2023-05-12T19:17:19.184Z,100697.09
2023-05-12T19:20:21.190Z,100696.25
2023-05-12T19:23:24.426Z,100703.75
2023-05-12T19:26:26.875Z,100700.75
2023-05-12T19:29:29.151Z,100699.59
2023-05-12T19:32:31.597Z,100702.59
2023-05-12T19:35:34.385Z,100706.25
2023-05-12T19:38:36.981Z,100702.72
2023-05-12T19:41:40.887Z,100709.53
2023-05-12T19:44:42.867Z,100708.31
2023-05-12T19:47:45.299Z,100714.50
2023-05-12T19:50:47.502Z,100709.84
2023-05-12T19:53:49.754Z,100716.78
2023-05-12T19:56:52.087Z,100710.22
2023-05-12T19:59:54.325Z,100713.81
2023-05-12T20:02:56.367Z,100721.31
2023-05-12T20:05:58.917Z,100716.97
2023-05-12T20:09:00.891Z,100721.75
2023-05-12T20:12:04.761Z,100718.34
2023-05-12T20:15:08.819Z,100714.75
2023-05-12T20:18:12.667Z,100720.00
2023-05-12T20:21:15.481Z,100712.84
2023-05-12T20:24:17.745Z,100715.47
2023-05-12T20:27:19.712Z,100714.06
2023-05-12T20:30:21.969Z,100711.78
2023-05-12T20:33:23.990Z,100704.19
2023-05-12T20:36:26.260Z,100713.16
2023-05-12T20:39:28.875Z,100709.69
2023-05-12T20:42:31.076Z,100702.16
2023-05-12T20:45:33.593Z,100709.25
2023-05-12T20:48:35.944Z,100706.06
2023-05-12T20:51:37.896Z,100708.94
2023-05-12T20:54:40.180Z,100706.78
2023-05-12T20:57:42.148Z,100709.47
2023-05-12T21:00:44.372Z,100714.91
2023-05-12T21:03:46.662Z,100713.78
2023-05-12T21:06:49.365Z,100716.59
2023-05-12T21:09:52.186Z,100715.13
2023-05-12T21:12:54.437Z,100711.34
2023-05-12T21:15:56.500Z,100719.16
2023-05-12T21:18:58.767Z,100719.75
2023-05-12T21:22:00.812Z,100710.19
2023-05-12T21:25:04.013Z,100714.72
2023-05-12T21:28:06.948Z,100720.78
2023-05-12T21:31:09.588Z,100722.44
2023-05-12T21:34:11.507Z,100717.31
2023-05-12T21:37:14.045Z,100717.44
2023-05-12T21:40:16.450Z,100718.19
2023-05-12T21:43:18.751Z,100721.84
2023-05-12T21:46:20.688Z,100716.19
2023-05-12T21:49:22.893Z,100720.44
2023-05-12T21:52:24.946Z,100719.34
2023-05-12T21:55:27.174Z,100722.28
2023-05-12T21:58:29.951Z,100721.97
2023-05-12T22:01:32.269Z,100721.84
2023-05-12T22:04:34.575Z,100724.69
2023-05-12T22:07:36.556Z,100707.50
2023-05-12T22:10:38.856Z,100715.19
2023-05-12T22:13:41.204Z,100720.50
2023-05-12T22:16:43.495Z,100716.72
2023-05-12T22:19:45.468Z,100715.31
2023-05-12T22:22:47.704Z,100711.09
2023-05-12T22:25:49.678Z,100723.72
2023-05-12T22:28:52.250Z,100716.59
2023-05-12T22:31:54.171Z,100714.41
2023-05-12T22:34:56.396Z,100716.91
2023-05-12T22:37:58.377Z,100717.47
2023-05-12T22:41:00.828Z,100711.06
2023-05-12T22:44:02.850Z,100710.00
2023-05-12T22:47:05.750Z,100714.97
2023-05-12T22:50:07.909Z,100705.53
2023-05-12T22:53:10.144Z,100707.56
2023-05-12T22:56:12.075Z,100709.59
2023-05-12T22:59:14.384Z,100704.87
2023-05-12T23:02:16.733Z,100707.75
2023-05-12T23:05:19.106Z,100700.38
2023-05-12T23:08:21.118Z,100701.47
2023-05-12T23:11:23.387Z,100698.09
2023-05-12T23:14:25.323Z,100706.84
2023-05-12T23:17:27.612Z,100697.41
2023-05-12T23:20:29.568Z,100698.31
2023-05-12T23:23:33.001Z,100692.56
2023-05-12T23:26:34.905Z,100686.41
2023-05-12T23:29:37.145Z,100686.28
2023-05-12T23:32:39.275Z,100681.53
2023-05-12T23:35:41.786Z,100676.91
2023-05-12T23:38:43.780Z,100680.94
2023-05-12T23:41:46.078Z,100675.47
2023-05-12T23:44:48.085Z,100682.72
2023-05-12T23:47:50.422Z,100685.44
2023-05-12T23:50:52.582Z,100682.81
2023-05-12T23:53:54.901Z,100675.88
2023-05-12T23:56:56.898Z,100681.81
2023-05-12T23:59:59.278Z,100678.00
